sensor_id;sensor_type;location;lat;lon;timestamp;P1;durP1;ratioP1;P2;durP2;ratioP2
22851;SDS011;11592;45.460;9.240;2024-03-23T00:53:15;78.30;;;41.70;;
22851;SDS011;11592;45.460;9.240;2024-03-23T00:55:41;81.60;;;42.38;;
22851;SDS011;11592;45.460;9.240;2024-03-23T00:58:08;81.50;;;42.13;;
22851;SDS011;11592;45.460;9.240;2024-03-23T01:00:34;80.18;;;39.50;;
22851;SDS011;11592;45.460;9.240;2024-03-23T01:03:00;80.72;;;41.55;;
22851;SDS011;11592;45.460;9.240;2024-03-23T01:05:27;80.50;;;41.90;;
22851;SDS011;11592;45.460;9.240;2024-03-23T01:07:53;87.13;;;42.05;;
22851;SDS011;11592;45.460;9.240;2024-03-23T01:10:19;70.13;;;38.03;;
22851;SDS011;11592;45.460;9.240;2024-03-23T01:12:45;82.50;;;40.30;;
22851;SDS011;11592;45.460;9.240;2024-03-23T01:15:11;73.63;;;37.53;;
22851;SDS011;11592;45.460;9.240;2024-03-23T01:17:37;75.88;;;40.05;;
22851;SDS011;11592;45.460;9.240;2024-03-23T01:20:03;76.63;;;38.28;;
22851;SDS011;11592;45.460;9.240;2024-03-23T01:22:31;74.95;;;39.97;;
22851;SDS011;11592;45.460;9.240;2024-03-23T01:24:58;76.95;;;39.33;;
22851;SDS011;11592;45.460;9.240;2024-03-23T01:27:24;72.15;;;39.33;;
22851;SDS011;11592;45.460;9.240;2024-03-23T01:29:50;70.90;;;37.97;;
22851;SDS011;11592;45.460;9.240;2024-03-23T01:32:18;74.07;;;39.22;;
22851;SDS011;11592;45.460;9.240;2024-03-23T01:34:44;77.00;;;38.33;;
22851;SDS011;11592;45.460;9.240;2024-03-23T01:37:10;76.93;;;40.08;;
22851;SDS011;11592;45.460;9.240;2024-03-23T01:39:36;78.38;;;38.42;;
22851;SDS011;11592;45.460;9.240;2024-03-23T01:42:03;71.82;;;37.55;;
22851;SDS011;11592;45.460;9.240;2024-03-23T01:44:29;72.30;;;39.13;;
22851;SDS011;11592;45.460;9.240;2024-03-23T01:46:55;76.82;;;39.67;;
22851;SDS011;11592;45.460;9.240;2024-03-23T01:49:22;75.28;;;38.42;;
22851;SDS011;11592;45.460;9.240;2024-03-23T01:51:48;74.35;;;39.90;;
22851;SDS011;11592;45.460;9.240;2024-03-23T01:54:15;72.30;;;39.33;;
22851;SDS011;11592;45.460;9.240;2024-03-23T01:56:41;74.88;;;38.65;;
22851;SDS011;11592;45.460;9.240;2024-03-23T01:59:07;78.40;;;39.40;;
22851;SDS011;11592;45.460;9.240;2024-03-23T02:01:36;78.18;;;39.15;;
22851;SDS011;11592;45.460;9.240;2024-03-23T02:04:02;77.63;;;39.55;;
22851;SDS011;11592;45.460;9.240;2024-03-23T02:06:28;81.47;;;39.67;;
22851;SDS011;11592;45.460;9.240;2024-03-23T02:08:55;74.45;;;38.95;;
22851;SDS011;11592;45.460;9.240;2024-03-23T02:11:21;83.63;;;40.17;;
22851;SDS011;11592;45.460;9.240;2024-03-23T02:13:47;80.88;;;39.80;;
22851;SDS011;11592;45.460;9.240;2024-03-23T02:16:13;79.95;;;39.17;;
22851;SDS011;11592;45.460;9.240;2024-03-23T02:18:39;82.43;;;41.95;;
22851;SDS011;11592;45.460;9.240;2024-03-23T02:21:05;73.63;;;39.42;;
22851;SDS011;11592;45.460;9.240;2024-03-23T02:23:32;86.10;;;40.53;;
22851;SDS011;11592;45.460;9.240;2024-03-23T02:25:58;79.93;;;39.38;;
22851;SDS011;11592;45.460;9.240;2024-03-23T02:28:24;79.43;;;40.30;;
22851;SDS011;11592;45.460;9.240;2024-03-23T02:30:50;78.03;;;39.25;;
22851;SDS011;11592;45.460;9.240;2024-03-23T02:33:16;81.72;;;41.70;;
22851;SDS011;11592;45.460;9.240;2024-03-23T02:35:46;77.95;;;39.25;;
22851;SDS011;11592;45.460;9.240;2024-03-23T02:38:12;82.10;;;40.35;;
22851;SDS011;11592;45.460;9.240;2024-03-23T02:40:38;82.20;;;41.85;;
22851;SDS011;11592;45.460;9.240;2024-03-23T02:43:05;78.88;;;40.78;;
22851;SDS011;11592;45.460;9.240;2024-03-23T02:45:31;82.78;;;41.22;;
22851;SDS011;11592;45.460;9.240;2024-03-23T02:47:57;80.78;;;41.00;;
22851;SDS011;11592;45.460;9.240;2024-03-23T02:50:23;80.43;;;40.33;;
22851;SDS011;11592;45.460;9.240;2024-03-23T02:52:49;93.10;;;43.35;;
22851;SDS011;11592;45.460;9.240;2024-03-23T02:55:16;83.93;;;42.20;;
22851;SDS011;11592;45.460;9.240;2024-03-23T02:57:41;84.28;;;41.65;;
22851;SDS011;11592;45.460;9.240;2024-03-23T03:00:08;81.43;;;41.25;;
22851;SDS011;11592;45.460;9.240;2024-03-23T03:02:36;81.10;;;42.03;;
22851;SDS011;11592;45.460;9.240;2024-03-23T03:05:03;86.53;;;43.28;;
22851;SDS011;11592;45.460;9.240;2024-03-23T03:07:30;84.97;;;41.38;;
22851;SDS011;11592;45.460;9.240;2024-03-23T03:09:57;88.60;;;42.53;;
22851;SDS011;11592;45.460;9.240;2024-03-23T03:12:23;87.03;;;43.40;;
22851;SDS011;11592;45.460;9.240;2024-03-23T03:14:49;81.45;;;42.70;;
22851;SDS011;11592;45.460;9.240;2024-03-23T03:17:15;83.47;;;40.65;;
22851;SDS011;11592;45.460;9.240;2024-03-23T03:19:41;81.78;;;41.90;;
22851;SDS011;11592;45.460;9.240;2024-03-23T03:22:07;83.53;;;41.45;;
22851;SDS011;11592;45.460;9.240;2024-03-23T03:24:33;79.72;;;41.45;;
22851;SDS011;11592;45.460;9.240;2024-03-23T03:27:00;83.68;;;41.67;;
22851;SDS011;11592;45.460;9.240;2024-03-23T03:29:26;79.05;;;39.90;;
22851;SDS011;11592;45.460;9.240;2024-03-23T03:31:59;84.22;;;40.30;;
22851;SDS011;11592;45.460;9.240;2024-03-23T03:34:25;83.22;;;42.13;;
22851;SDS011;11592;45.460;9.240;2024-03-23T03:36:51;84.78;;;40.85;;
22851;SDS011;11592;45.460;9.240;2024-03-23T03:39:17;82.03;;;40.75;;
22851;SDS011;11592;45.460;9.240;2024-03-23T03:41:43;91.68;;;42.22;;
22851;SDS011;11592;45.460;9.240;2024-03-23T03:44:10;80.65;;;41.90;;
22851;SDS011;11592;45.460;9.240;2024-03-23T03:46:36;81.63;;;40.97;;
22851;SDS011;11592;45.460;9.240;2024-03-23T03:49:02;81.63;;;40.65;;
22851;SDS011;11592;45.460;9.240;2024-03-23T03:51:28;81.95;;;41.15;;
22851;SDS011;11592;45.460;9.240;2024-03-23T03:53:54;76.95;;;38.50;;
22851;SDS011;11592;45.460;9.240;2024-03-23T03:56:21;79.70;;;41.28;;
22851;SDS011;11592;45.460;9.240;2024-03-23T03:58:47;80.22;;;40.17;;
22851;SDS011;11592;45.460;9.240;2024-03-23T04:01:14;83.20;;;40.70;;
22851;SDS011;11592;45.460;9.240;2024-03-23T04:03:40;79.63;;;40.35;;
22851;SDS011;11592;45.460;9.240;2024-03-23T04:06:12;80.40;;;39.90;;
22851;SDS011;11592;45.460;9.240;2024-03-23T04:08:43;81.93;;;39.92;;
22851;SDS011;11592;45.460;9.240;2024-03-23T04:11:09;78.93;;;39.90;;
22851;SDS011;11592;45.460;9.240;2024-03-23T04:13:35;89.35;;;40.10;;
22851;SDS011;11592;45.460;9.240;2024-03-23T04:16:01;81.50;;;39.60;;
22851;SDS011;11592;45.460;9.240;2024-03-23T04:18:27;85.60;;;41.00;;
22851;SDS011;11592;45.460;9.240;2024-03-23T04:20:54;69.65;;;37.80;;
22851;SDS011;11592;45.460;9.240;2024-03-23T04:23:19;77.97;;;38.53;;
22851;SDS011;11592;45.460;9.240;2024-03-23T04:25:46;78.07;;;39.55;;
22851;SDS011;11592;45.460;9.240;2024-03-23T04:28:12;75.28;;;38.22;;
22851;SDS011;11592;45.460;9.240;2024-03-23T04:30:38;74.07;;;37.85;;
22851;SDS011;11592;45.460;9.240;2024-03-23T04:33:03;74.30;;;38.50;;
22851;SDS011;11592;45.460;9.240;2024-03-23T04:35:30;73.40;;;37.60;;
22851;SDS011;11592;45.460;9.240;2024-03-23T04:37:56;75.57;;;38.33;;
22851;SDS011;11592;45.460;9.240;2024-03-23T04:40:24;79.55;;;40.40;;
22851;SDS011;11592;45.460;9.240;2024-03-23T04:42:50;76.25;;;38.50;;
22851;SDS011;11592;45.460;9.240;2024-03-23T04:45:16;74.18;;;37.75;;
22851;SDS011;11592;45.460;9.240;2024-03-23T04:47:42;77.88;;;38.05;;
22851;SDS011;11592;45.460;9.240;2024-03-23T04:50:09;78.60;;;39.05;;
22851;SDS011;11592;45.460;9.240;2024-03-23T04:52:38;75.47;;;38.67;;
22851;SDS011;11592;45.460;9.240;2024-03-23T04:55:04;74.43;;;38.50;;
22851;SDS011;11592;45.460;9.240;2024-03-23T04:57:31;75.00;;;39.17;;
22851;SDS011;11592;45.460;9.240;2024-03-23T04:59:56;78.53;;;39.15;;
22851;SDS011;11592;45.460;9.240;2024-03-23T05:02:23;77.85;;;38.95;;
22851;SDS011;11592;45.460;9.240;2024-03-23T05:04:50;72.97;;;37.17;;
22851;SDS011;11592;45.460;9.240;2024-03-23T05:07:16;72.05;;;38.05;;
22851;SDS011;11592;45.460;9.240;2024-03-23T05:09:42;73.68;;;39.30;;
22851;SDS011;11592;45.460;9.240;2024-03-23T05:12:09;74.03;;;38.20;;
22851;SDS011;11592;45.460;9.240;2024-03-23T05:14:34;76.63;;;38.15;;
22851;SDS011;11592;45.460;9.240;2024-03-23T05:17:01;70.65;;;37.83;;
22851;SDS011;11592;45.460;9.240;2024-03-23T05:19:28;74.50;;;36.53;;
22851;SDS011;11592;45.460;9.240;2024-03-23T05:21:54;79.28;;;37.10;;
22851;SDS011;11592;45.460;9.240;2024-03-23T05:24:20;77.50;;;38.83;;
22851;SDS011;11592;45.460;9.240;2024-03-23T05:26:46;75.80;;;39.15;;
22851;SDS011;11592;45.460;9.240;2024-03-23T05:29:12;73.38;;;37.80;;
22851;SDS011;11592;45.460;9.240;2024-03-23T05:31:39;74.05;;;37.55;;
22851;SDS011;11592;45.460;9.240;2024-03-23T05:34:07;73.43;;;37.10;;
22851;SDS011;11592;45.460;9.240;2024-03-23T05:36:33;74.88;;;39.22;;
22851;SDS011;11592;45.460;9.240;2024-03-23T05:38:58;74.07;;;38.75;;
22851;SDS011;11592;45.460;9.240;2024-03-23T05:41:25;77.70;;;38.50;;
22851;SDS011;11592;45.460;9.240;2024-03-23T05:43:51;71.18;;;37.22;;
22851;SDS011;11592;45.460;9.240;2024-03-23T05:46:17;73.10;;;37.17;;
22851;SDS011;11592;45.460;9.240;2024-03-23T05:48:43;82.25;;;39.15;;
22851;SDS011;11592;45.460;9.240;2024-03-23T05:51:09;76.10;;;38.00;;
22851;SDS011;11592;45.460;9.240;2024-03-23T05:53:37;88.65;;;38.65;;
22851;SDS011;11592;45.460;9.240;2024-03-23T05:56:03;79.65;;;37.95;;
22851;SDS011;11592;45.460;9.240;2024-03-23T05:58:30;78.43;;;39.05;;
22851;SDS011;11592;45.460;9.240;2024-03-23T06:00:57;84.20;;;37.65;;
22851;SDS011;11592;45.460;9.240;2024-03-23T06:03:24;80.90;;;38.40;;
22851;SDS011;11592;45.460;9.240;2024-03-23T06:05:51;78.38;;;38.42;;
22851;SDS011;11592;45.460;9.240;2024-03-23T06:08:18;80.60;;;37.97;;
22851;SDS011;11592;45.460;9.240;2024-03-23T06:10:45;75.88;;;38.40;;
22851;SDS011;11592;45.460;9.240;2024-03-23T06:13:11;70.18;;;36.05;;
22851;SDS011;11592;45.460;9.240;2024-03-23T06:15:37;75.65;;;35.88;;
22851;SDS011;11592;45.460;9.240;2024-03-23T06:18:03;76.55;;;37.40;;
22851;SDS011;11592;45.460;9.240;2024-03-23T06:20:30;80.78;;;38.50;;
22851;SDS011;11592;45.460;9.240;2024-03-23T06:22:57;84.25;;;39.83;;
22851;SDS011;11592;45.460;9.240;2024-03-23T06:25:23;83.22;;;39.95;;
22851;SDS011;11592;45.460;9.240;2024-03-23T06:27:49;81.75;;;39.42;;
22851;SDS011;11592;45.460;9.240;2024-03-23T06:30:14;76.50;;;38.47;;
22851;SDS011;11592;45.460;9.240;2024-03-23T06:32:41;87.03;;;39.55;;
22851;SDS011;11592;45.460;9.240;2024-03-23T06:35:07;75.53;;;37.78;;
22851;SDS011;11592;45.460;9.240;2024-03-23T06:37:35;74.10;;;36.35;;
22851;SDS011;11592;45.460;9.240;2024-03-23T06:40:02;73.45;;;35.90;;
22851;SDS011;11592;45.460;9.240;2024-03-23T06:42:31;70.13;;;37.57;;
22851;SDS011;11592;45.460;9.240;2024-03-23T06:44:57;80.75;;;38.50;;
22851;SDS011;11592;45.460;9.240;2024-03-23T06:47:23;76.47;;;37.55;;
22851;SDS011;11592;45.460;9.240;2024-03-23T06:49:50;71.78;;;36.17;;
22851;SDS011;11592;45.460;9.240;2024-03-23T06:52:17;68.75;;;35.97;;
22851;SDS011;11592;45.460;9.240;2024-03-23T06:54:43;71.03;;;35.90;;
22851;SDS011;11592;45.460;9.240;2024-03-23T06:57:12;66.80;;;35.22;;
22851;SDS011;11592;45.460;9.240;2024-03-23T06:59:38;66.35;;;33.38;;
22851;SDS011;11592;45.460;9.240;2024-03-23T07:02:05;57.28;;;30.92;;
22851;SDS011;11592;45.460;9.240;2024-03-23T07:04:34;59.78;;;29.85;;
22851;SDS011;11592;45.460;9.240;2024-03-23T07:07:00;52.30;;;28.85;;
22851;SDS011;11592;45.460;9.240;2024-03-23T07:09:29;50.38;;;27.02;;
22851;SDS011;11592;45.460;9.240;2024-03-23T07:11:58;45.72;;;24.95;;
22851;SDS011;11592;45.460;9.240;2024-03-23T07:14:24;44.77;;;24.10;;
22851;SDS011;11592;45.460;9.240;2024-03-23T07:16:51;43.00;;;22.45;;
22851;SDS011;11592;45.460;9.240;2024-03-23T07:19:17;39.13;;;21.95;;
22851;SDS011;11592;45.460;9.240;2024-03-23T07:21:44;40.28;;;23.00;;
22851;SDS011;11592;45.460;9.240;2024-03-23T07:24:10;44.75;;;21.95;;
22851;SDS011;11592;45.460;9.240;2024-03-23T07:26:36;42.50;;;21.42;;
22851;SDS011;11592;45.460;9.240;2024-03-23T07:29:03;40.38;;;23.05;;
22851;SDS011;11592;45.460;9.240;2024-03-23T07:31:29;38.38;;;21.00;;
22851;SDS011;11592;45.460;9.240;2024-03-23T07:33:56;37.30;;;21.90;;
22851;SDS011;11592;45.460;9.240;2024-03-23T07:36:22;36.33;;;20.02;;
22851;SDS011;11592;45.460;9.240;2024-03-23T07:38:48;37.85;;;21.30;;
22851;SDS011;11592;45.460;9.240;2024-03-23T07:41:15;37.20;;;19.63;;
22851;SDS011;11592;45.460;9.240;2024-03-23T07:43:43;30.73;;;17.40;;
22851;SDS011;11592;45.460;9.240;2024-03-23T07:46:09;34.28;;;19.48;;
22851;SDS011;11592;45.460;9.240;2024-03-23T07:48:35;31.85;;;17.73;;
22851;SDS011;11592;45.460;9.240;2024-03-23T07:51:05;31.42;;;18.05;;
22851;SDS011;11592;45.460;9.240;2024-03-23T07:53:32;31.08;;;16.30;;
22851;SDS011;11592;45.460;9.240;2024-03-23T07:56:00;29.83;;;16.30;;
22851;SDS011;11592;45.460;9.240;2024-03-23T07:58:27;36.38;;;17.42;;
22851;SDS011;11592;45.460;9.240;2024-03-23T08:00:54;31.80;;;15.73;;
22851;SDS011;11592;45.460;9.240;2024-03-23T08:03:20;29.05;;;15.23;;
22851;SDS011;11592;45.460;9.240;2024-03-23T08:05:47;28.02;;;15.73;;
22851;SDS011;11592;45.460;9.240;2024-03-23T08:08:13;28.83;;;14.63;;
22851;SDS011;11592;45.460;9.240;2024-03-23T08:10:49;27.98;;;15.60;;
22851;SDS011;11592;45.460;9.240;2024-03-23T08:13:16;26.60;;;15.85;;
22851;SDS011;11592;45.460;9.240;2024-03-23T08:15:42;27.38;;;16.25;;
22851;SDS011;11592;45.460;9.240;2024-03-23T08:18:09;25.70;;;16.17;;
22851;SDS011;11592;45.460;9.240;2024-03-23T08:20:36;29.08;;;15.93;;
22851;SDS011;11592;45.460;9.240;2024-03-23T08:23:02;28.00;;;16.35;;
22851;SDS011;11592;45.460;9.240;2024-03-23T08:25:32;28.67;;;15.90;;
22851;SDS011;11592;45.460;9.240;2024-03-23T08:27:58;29.63;;;16.00;;
22851;SDS011;11592;45.460;9.240;2024-03-23T08:30:25;36.05;;;15.88;;
22851;SDS011;11592;45.460;9.240;2024-03-23T08:32:51;29.48;;;15.05;;
22851;SDS011;11592;45.460;9.240;2024-03-23T08:35:17;28.08;;;15.52;;
22851;SDS011;11592;45.460;9.240;2024-03-23T08:37:43;25.75;;;15.13;;
22851;SDS011;11592;45.460;9.240;2024-03-23T08:40:10;25.05;;;14.70;;
22851;SDS011;11592;45.460;9.240;2024-03-23T08:42:36;24.58;;;13.88;;
22851;SDS011;11592;45.460;9.240;2024-03-23T08:45:02;30.45;;;14.85;;
22851;SDS011;11592;45.460;9.240;2024-03-23T08:47:28;25.65;;;15.00;;
22851;SDS011;11592;45.460;9.240;2024-03-23T08:49:55;28.63;;;14.52;;
22851;SDS011;11592;45.460;9.240;2024-03-23T08:52:23;26.05;;;14.35;;
22851;SDS011;11592;45.460;9.240;2024-03-23T08:54:51;31.60;;;15.32;;
22851;SDS011;11592;45.460;9.240;2024-03-23T08:57:17;25.58;;;16.15;;
22851;SDS011;11592;45.460;9.240;2024-03-23T08:59:43;28.48;;;15.70;;
22851;SDS011;11592;45.460;9.240;2024-03-23T09:02:09;21.92;;;12.63;;
22851;SDS011;11592;45.460;9.240;2024-03-23T09:04:35;26.25;;;15.20;;
22851;SDS011;11592;45.460;9.240;2024-03-23T09:07:02;27.38;;;15.90;;
22851;SDS011;11592;45.460;9.240;2024-03-23T09:09:28;27.58;;;15.00;;
22851;SDS011;11592;45.460;9.240;2024-03-23T09:11:54;30.00;;;15.00;;
22851;SDS011;11592;45.460;9.240;2024-03-23T09:14:21;29.65;;;15.13;;
22851;SDS011;11592;45.460;9.240;2024-03-23T09:16:49;23.80;;;14.35;;
22851;SDS011;11592;45.460;9.240;2024-03-23T09:19:16;222.90;;;28.73;;
22851;SDS011;11592;45.460;9.240;2024-03-23T09:21:43;25.40;;;14.30;;
22851;SDS011;11592;45.460;9.240;2024-03-23T09:24:09;26.85;;;14.70;;
22851;SDS011;11592;45.460;9.240;2024-03-23T09:26:35;24.13;;;14.95;;
22851;SDS011;11592;45.460;9.240;2024-03-23T09:29:01;27.63;;;13.85;;
22851;SDS011;11592;45.460;9.240;2024-03-23T09:31:28;27.48;;;13.43;;
22851;SDS011;11592;45.460;9.240;2024-03-23T09:33:54;21.20;;;12.55;;
22851;SDS011;11592;45.460;9.240;2024-03-23T09:36:21;19.70;;;12.55;;
22851;SDS011;11592;45.460;9.240;2024-03-23T09:38:47;22.08;;;13.05;;
22851;SDS011;11592;45.460;9.240;2024-03-23T09:41:13;23.38;;;12.93;;
22851;SDS011;11592;45.460;9.240;2024-03-23T09:43:40;23.67;;;13.85;;
22851;SDS011;11592;45.460;9.240;2024-03-23T09:46:06;24.60;;;13.70;;
22851;SDS011;11592;45.460;9.240;2024-03-23T09:48:33;22.67;;;13.25;;
22851;SDS011;11592;45.460;9.240;2024-03-23T09:50:59;19.65;;;12.52;;
22851;SDS011;11592;45.460;9.240;2024-03-23T09:53:25;25.10;;;14.90;;
22851;SDS011;11592;45.460;9.240;2024-03-23T09:55:51;24.35;;;15.15;;
22851;SDS011;11592;45.460;9.240;2024-03-23T09:58:18;22.08;;;13.73;;
22851;SDS011;11592;45.460;9.240;2024-03-23T10:00:44;24.08;;;15.48;;
22851;SDS011;11592;45.460;9.240;2024-03-23T10:03:10;28.13;;;15.55;;
22851;SDS011;11592;45.460;9.240;2024-03-23T10:05:37;30.20;;;14.07;;
22851;SDS011;11592;45.460;9.240;2024-03-23T10:10:41;23.90;;;13.57;;
22851;SDS011;11592;45.460;9.240;2024-03-23T10:13:07;27.25;;;15.10;;
22851;SDS011;11592;45.460;9.240;2024-03-23T10:15:34;28.15;;;14.65;;
22851;SDS011;11592;45.460;9.240;2024-03-23T10:18:19;23.98;;;14.45;;
22851;SDS011;11592;45.460;9.240;2024-03-23T10:20:50;22.40;;;13.45;;
22851;SDS011;11592;45.460;9.240;2024-03-23T10:23:16;24.77;;;13.63;;
22851;SDS011;11592;45.460;9.240;2024-03-23T10:25:43;24.00;;;14.25;;
22851;SDS011;11592;45.460;9.240;2024-03-23T10:28:09;24.80;;;14.60;;
22851;SDS011;11592;45.460;9.240;2024-03-23T10:30:37;26.27;;;12.85;;
22851;SDS011;11592;45.460;9.240;2024-03-23T10:33:09;25.63;;;14.63;;
22851;SDS011;11592;45.460;9.240;2024-03-23T10:35:39;23.42;;;14.63;;
22851;SDS011;11592;45.460;9.240;2024-03-23T10:38:05;21.88;;;12.82;;
22851;SDS011;11592;45.460;9.240;2024-03-23T10:40:33;23.23;;;12.95;;
22851;SDS011;11592;45.460;9.240;2024-03-23T10:43:00;23.52;;;13.40;;
22851;SDS011;11592;45.460;9.240;2024-03-23T10:45:26;24.42;;;13.88;;
22851;SDS011;11592;45.460;9.240;2024-03-23T10:47:53;28.02;;;15.18;;
22851;SDS011;11592;45.460;9.240;2024-03-23T10:50:19;25.27;;;14.93;;
22851;SDS011;11592;45.460;9.240;2024-03-23T10:52:46;24.00;;;14.38;;
22851;SDS011;11592;45.460;9.240;2024-03-23T10:55:15;26.77;;;15.05;;
22851;SDS011;11592;45.460;9.240;2024-03-23T10:57:54;27.85;;;14.80;;
22851;SDS011;11592;45.460;9.240;2024-03-23T11:00:24;24.27;;;14.75;;
22851;SDS011;11592;45.460;9.240;2024-03-23T11:02:50;27.20;;;15.13;;
22851;SDS011;11592;45.460;9.240;2024-03-23T11:07:52;29.27;;;15.70;;
22851;SDS011;11592;45.460;9.240;2024-03-23T11:10:25;26.38;;;14.90;;
22851;SDS011;11592;45.460;9.240;2024-03-23T11:12:54;26.27;;;17.10;;
22851;SDS011;11592;45.460;9.240;2024-03-23T11:15:20;30.30;;;17.23;;
22851;SDS011;11592;45.460;9.240;2024-03-23T11:18:05;27.90;;;16.58;;
22851;SDS011;11592;45.460;9.240;2024-03-23T11:20:37;28.30;;;15.48;;
22851;SDS011;11592;45.460;9.240;2024-03-23T11:23:03;26.10;;;14.65;;
22851;SDS011;11592;45.460;9.240;2024-03-23T11:25:29;29.88;;;16.35;;
22851;SDS011;11592;45.460;9.240;2024-03-23T11:28:11;29.92;;;17.10;;
22851;SDS011;11592;45.460;9.240;2024-03-23T11:30:37;24.25;;;15.82;;
22851;SDS011;11592;45.460;9.240;2024-03-23T11:33:04;25.17;;;16.35;;
22851;SDS011;11592;45.460;9.240;2024-03-23T11:35:31;28.40;;;17.27;;
22851;SDS011;11592;45.460;9.240;2024-03-23T11:38:04;28.10;;;16.17;;
22851;SDS011;11592;45.460;9.240;2024-03-23T11:40:31;24.83;;;15.40;;
22851;SDS011;11592;45.460;9.240;2024-03-23T11:43:01;25.58;;;15.23;;
22851;SDS011;11592;45.460;9.240;2024-03-23T11:45:29;24.08;;;15.13;;
22851;SDS011;11592;45.460;9.240;2024-03-23T11:48:04;23.73;;;14.85;;
22851;SDS011;11592;45.460;9.240;2024-03-23T11:50:34;24.23;;;14.43;;
22851;SDS011;11592;45.460;9.240;2024-03-23T11:55:41;24.98;;;14.48;;
22851;SDS011;11592;45.460;9.240;2024-03-23T11:58:12;23.23;;;13.70;;
22851;SDS011;11592;45.460;9.240;2024-03-23T12:00:38;25.08;;;13.85;;
22851;SDS011;11592;45.460;9.240;2024-03-23T12:03:05;22.17;;;13.00;;
22851;SDS011;11592;45.460;9.240;2024-03-23T12:05:31;24.33;;;12.93;;
22851;SDS011;11592;45.460;9.240;2024-03-23T12:10:52;21.45;;;11.82;;
22851;SDS011;11592;45.460;9.240;2024-03-23T12:13:29;21.40;;;10.25;;
22851;SDS011;11592;45.460;9.240;2024-03-23T12:15:58;18.60;;;11.18;;
22851;SDS011;11592;45.460;9.240;2024-03-23T12:18:54;18.60;;;9.77;;
22851;SDS011;11592;45.460;9.240;2024-03-23T12:21:30;20.25;;;9.38;;
22851;SDS011;11592;45.460;9.240;2024-03-23T12:23:57;19.42;;;10.05;;
22851;SDS011;11592;45.460;9.240;2024-03-23T12:26:23;22.55;;;10.57;;
22851;SDS011;11592;45.460;9.240;2024-03-23T12:28:50;21.77;;;10.32;;
22851;SDS011;11592;45.460;9.240;2024-03-23T12:31:16;18.10;;;9.25;;
22851;SDS011;11592;45.460;9.240;2024-03-23T12:33:42;21.38;;;10.13;;
22851;SDS011;11592;45.460;9.240;2024-03-23T12:36:09;17.38;;;9.98;;
22851;SDS011;11592;45.460;9.240;2024-03-23T12:38:36;16.48;;;8.82;;
22851;SDS011;11592;45.460;9.240;2024-03-23T12:41:02;17.25;;;10.02;;
22851;SDS011;11592;45.460;9.240;2024-03-23T12:43:30;18.20;;;9.68;;
22851;SDS011;11592;45.460;9.240;2024-03-23T12:45:56;17.38;;;8.27;;
22851;SDS011;11592;45.460;9.240;2024-03-23T12:48:23;16.98;;;7.60;;
22851;SDS011;11592;45.460;9.240;2024-03-23T12:50:49;13.18;;;6.80;;
22851;SDS011;11592;45.460;9.240;2024-03-23T12:53:20;14.13;;;8.00;;
22851;SDS011;11592;45.460;9.240;2024-03-23T12:55:46;15.70;;;8.27;;
22851;SDS011;11592;45.460;9.240;2024-03-23T12:58:12;17.27;;;9.27;;
22851;SDS011;11592;45.460;9.240;2024-03-23T13:00:38;17.15;;;8.65;;
22851;SDS011;11592;45.460;9.240;2024-03-23T13:03:04;18.92;;;10.52;;
22851;SDS011;11592;45.460;9.240;2024-03-23T13:05:30;23.50;;;10.50;;
22851;SDS011;11592;45.460;9.240;2024-03-23T13:07:57;17.20;;;9.18;;
22851;SDS011;11592;45.460;9.240;2024-03-23T13:10:23;22.88;;;12.27;;
22851;SDS011;11592;45.460;9.240;2024-03-23T13:12:49;36.10;;;21.20;;
22851;SDS011;11592;45.460;9.240;2024-03-23T13:15:14;41.65;;;23.45;;
22851;SDS011;11592;45.460;9.240;2024-03-23T13:17:42;36.35;;;21.48;;
22851;SDS011;11592;45.460;9.240;2024-03-23T13:20:09;47.03;;;23.85;;
22851;SDS011;11592;45.460;9.240;2024-03-23T13:25:05;39.70;;;23.05;;
22851;SDS011;11592;45.460;9.240;2024-03-23T13:27:31;38.30;;;22.55;;
22851;SDS011;11592;45.460;9.240;2024-03-23T13:29:57;37.03;;;21.27;;
22851;SDS011;11592;45.460;9.240;2024-03-23T13:32:23;38.40;;;21.77;;
22851;SDS011;11592;45.460;9.240;2024-03-23T13:34:49;35.92;;;21.80;;
22851;SDS011;11592;45.460;9.240;2024-03-23T13:37:16;39.10;;;22.75;;
22851;SDS011;11592;45.460;9.240;2024-03-23T13:39:42;32.40;;;20.42;;
22851;SDS011;11592;45.460;9.240;2024-03-23T13:42:08;39.00;;;22.55;;
22851;SDS011;11592;45.460;9.240;2024-03-23T13:44:34;38.15;;;21.08;;
22851;SDS011;11592;45.460;9.240;2024-03-23T13:47:01;38.67;;;20.92;;
22851;SDS011;11592;45.460;9.240;2024-03-23T13:49:29;29.60;;;17.83;;
22851;SDS011;11592;45.460;9.240;2024-03-23T13:51:57;32.67;;;18.58;;
22851;SDS011;11592;45.460;9.240;2024-03-23T13:54:25;35.33;;;22.60;;
22851;SDS011;11592;45.460;9.240;2024-03-23T13:56:51;38.95;;;23.35;;
22851;SDS011;11592;45.460;9.240;2024-03-23T13:59:18;39.20;;;23.90;;
22851;SDS011;11592;45.460;9.240;2024-03-23T14:01:44;36.72;;;23.23;;
22851;SDS011;11592;45.460;9.240;2024-03-23T14:04:11;38.97;;;22.73;;
22851;SDS011;11592;45.460;9.240;2024-03-23T14:06:37;40.40;;;22.92;;
22851;SDS011;11592;45.460;9.240;2024-03-23T14:09:03;34.13;;;20.02;;
22851;SDS011;11592;45.460;9.240;2024-03-23T14:11:29;31.75;;;20.67;;
22851;SDS011;11592;45.460;9.240;2024-03-23T14:13:56;32.42;;;18.98;;
22851;SDS011;11592;45.460;9.240;2024-03-23T14:16:22;34.85;;;18.92;;
22851;SDS011;11592;45.460;9.240;2024-03-23T14:18:48;31.40;;;18.73;;
22851;SDS011;11592;45.460;9.240;2024-03-23T14:21:15;33.13;;;18.42;;
22851;SDS011;11592;45.460;9.240;2024-03-23T14:23:41;32.67;;;18.38;;
22851;SDS011;11592;45.460;9.240;2024-03-23T14:26:07;30.48;;;18.17;;
22851;SDS011;11592;45.460;9.240;2024-03-23T14:28:34;31.23;;;18.02;;
22851;SDS011;11592;45.460;9.240;2024-03-23T14:31:00;25.75;;;16.15;;
22851;SDS011;11592;45.460;9.240;2024-03-23T14:33:26;29.77;;;17.60;;
22851;SDS011;11592;45.460;9.240;2024-03-23T14:35:56;30.45;;;16.50;;
22851;SDS011;11592;45.460;9.240;2024-03-23T14:38:22;30.35;;;16.27;;
22851;SDS011;11592;45.460;9.240;2024-03-23T14:40:48;24.98;;;14.88;;
22851;SDS011;11592;45.460;9.240;2024-03-23T14:43:15;14.30;;;6.82;;
22851;SDS011;11592;45.460;9.240;2024-03-23T14:48:36;22.48;;;11.90;;
22851;SDS011;11592;45.460;9.240;2024-03-23T14:51:03;22.58;;;12.48;;
22851;SDS011;11592;45.460;9.240;2024-03-23T14:53:34;26.48;;;15.07;;
22851;SDS011;11592;45.460;9.240;2024-03-23T14:56:01;28.08;;;15.95;;
22851;SDS011;11592;45.460;9.240;2024-03-23T14:58:27;26.00;;;16.83;;
22851;SDS011;11592;45.460;9.240;2024-03-23T15:01:03;28.40;;;16.02;;
22851;SDS011;11592;45.460;9.240;2024-03-23T15:03:34;28.70;;;16.23;;
22851;SDS011;11592;45.460;9.240;2024-03-23T15:06:00;26.20;;;15.23;;
22851;SDS011;11592;45.460;9.240;2024-03-23T15:08:27;20.30;;;11.68;;
22851;SDS011;11592;45.460;9.240;2024-03-23T15:10:53;32.72;;;15.98;;
22851;SDS011;11592;45.460;9.240;2024-03-23T15:13:19;28.20;;;16.25;;
22851;SDS011;11592;45.460;9.240;2024-03-23T15:15:48;22.60;;;13.68;;
22851;SDS011;11592;45.460;9.240;2024-03-23T15:18:14;28.55;;;15.70;;
22851;SDS011;11592;45.460;9.240;2024-03-23T15:20:41;26.42;;;15.82;;
22851;SDS011;11592;45.460;9.240;2024-03-23T15:23:07;28.02;;;16.98;;
22851;SDS011;11592;45.460;9.240;2024-03-23T15:25:33;27.02;;;16.92;;
22851;SDS011;11592;45.460;9.240;2024-03-23T15:28:00;23.98;;;15.10;;